Time;durP1;ratioP1;P1;durP2;ratioP2;P2;SDS_P1;SDS_P2;PMS_P1;PMS_P2;Temp;Humidity;BMP_temperature;BMP_pressure;BME280_temperature;BME280_humidity;BME280_pressure;Samples;Min_cycle;Max_cycle;Signal;HPM_P1;HPM_P2
2021/12/18 00:02:22;;;;;;;6.03;2.47;;;17.70;52.60;16.80;103535.00;;;;5001802;28;20033;-68
2021/12/18 00:05:09;;;;;;;6.30;2.92;;;17.70;52.60;16.80;103540.00;;;;5018420;28;20038;-68
2021/12/18 00:07:55;;;;;;;4.68;2.38;;;17.70;52.60;16.80;103543.00;;;;5020431;28;20037;-68
2021/12/18 00:10:41;;;;;;;5.10;1.98;;;17.70;52.60;16.70;103538.00;;;;5010209;28;20091;-68
2021/12/18 00:13:27;;;;;;;5.53;2.50;;;17.70;52.60;16.70;103538.00;;;;5011925;28;20046;-68
2021/12/18 00:16:13;;;;;;;3.95;1.73;;;17.70;52.60;16.70;103538.00;;;;5012699;28;20096;-68
2021/12/18 00:19:00;;;;;;;5.18;2.42;;;17.70;52.70;16.70;103538.00;;;;5014999;28;20041;-68
2021/12/18 00:21:46;;;;;;;4.53;2.00;;;17.70;52.70;16.70;103533.00;;;;5016850;28;20065;-68
2021/12/18 00:24:32;;;;;;;5.30;2.10;;;17.70;52.70;16.70;103530.00;;;;5024749;28;20470;-68
2021/12/18 00:27:18;;;;;;;3.80;1.65;;;17.70;52.70;16.70;103532.00;;;;5014727;28;20052;-68
2021/12/18 00:30:06;;;;;;;4.13;1.83;;;17.70;52.70;16.70;103528.00;;;;5014666;28;20408;-68
2021/12/18 00:32:52;;;;;;;2.25;1.77;;;17.60;52.70;16.70;103520.00;;;;5004647;28;20045;-68
2021/12/18 00:35:39;;;;;;;3.85;1.80;;;17.70;52.70;16.70;103522.00;;;;5036075;28;21567;-68
2021/12/18 00:38:29;;;;;;;3.28;1.67;;;17.70;52.70;16.70;103511.00;;;;5010240;28;20475;-68
2021/12/18 00:44:14;;;;;;;4.13;1.83;;;17.60;52.70;16.70;103514.00;;;;5017835;28;20076;-68
2021/12/18 00:47:00;;;;;;;2.33;1.65;;;17.60;52.70;16.70;103522.00;;;;5022708;28;20267;-68
2021/12/18 00:49:46;;;;;;;2.25;1.30;;;17.60;52.70;16.70;103514.00;;;;5017418;28;20048;-68
2021/12/18 00:52:32;;;;;;;4.38;1.60;;;17.70;52.70;16.70;103510.00;;;;5012553;28;20538;-68
2021/12/18 00:55:22;;;;;;;3.40;1.30;;;17.60;52.70;16.70;103519.00;;;;5019570;28;20038;-68
2021/12/18 00:58:08;;;;;;;1.80;1.20;;;17.60;52.70;16.70;103511.00;;;;5015396;28;20034;-68
2021/12/18 01:00:54;;;;;;;1.83;1.10;;;17.60;52.70;16.70;103520.00;;;;5017825;28;20499;-68
2021/12/18 01:03:42;;;;;;;4.20;1.50;;;17.60;52.70;16.70;103510.00;;;;5014272;28;20045;-68
2021/12/18 01:06:28;;;;;;;1.92;1.30;;;17.60;52.70;16.70;103518.00;;;;5008266;28;20498;-68
2021/12/18 01:09:17;;;;;;;2.45;1.50;;;17.60;52.70;16.70;103524.00;;;;5018997;28;20042;-68
2021/12/18 01:12:05;;;;;;;2.50;1.20;;;17.60;52.70;16.70;103528.00;;;;5018586;28;20033;-68
2021/12/18 01:24:20;;;;;;;3.80;2.05;;;17.60;52.70;16.60;103539.00;;;;5004305;28;20080;-68
2021/12/18 01:27:06;;;;;;;2.55;1.23;;;17.60;52.70;16.70;103540.00;;;;5027595;28;20441;-68
2021/12/18 01:29:52;;;;;;;2.13;1.30;;;17.60;52.70;16.70;103533.00;;;;5019790;28;20037;-68
2021/12/18 01:32:39;;;;;;;3.10;1.77;;;17.60;52.70;16.60;103530.00;;;;5021924;28;20080;-68
2021/12/18 01:35:26;;;;;;;3.35;1.25;;;17.60;52.80;16.60;103541.00;;;;5037828;28;20328;-67
2021/12/18 01:38:12;;;;;;;2.15;1.40;;;17.60;52.80;16.60;103544.00;;;;5022172;28;20065;-68
2021/12/18 01:40:59;;;;;;;3.53;1.85;;;17.60;52.80;16.60;103528.00;;;;5021130;28;20037;-68
2021/12/18 01:52:54;;;;;;;3.83;2.13;;;17.60;52.80;16.60;103547.00;;;;5013726;28;20087;-68
2021/12/18 01:55:41;;;;;;;3.67;1.58;;;17.50;52.80;16.60;103541.00;;;;5005919;28;20048;-68
2021/12/18 01:58:27;;;;;;;3.22;1.60;;;17.60;52.90;16.60;103539.00;;;;5006045;28;20073;-68
2021/12/18 02:01:14;;;;;;;3.00;1.95;;;17.50;52.70;16.60;103543.00;;;;5012071;28;20179;-68
2021/12/18 02:04:00;;;;;;;4.43;2.20;;;17.50;52.70;16.60;103541.00;;;;5018710;28;20049;-68
2021/12/18 02:06:46;;;;;;;3.40;1.80;;;17.50;52.70;16.60;103546.00;;;;5012570;28;20120;-68
2021/12/18 02:10:02;;;;;;;3.58;2.28;;;17.50;52.70;16.60;103542.00;;;;4996997;28;20047;-68
2021/12/18 02:21:40;;;;;;;4.45;2.38;;;17.50;52.70;16.60;103534.00;;;;5000392;28;20399;-68
2021/12/18 02:24:27;;;;;;;4.10;2.58;;;17.50;52.80;16.60;103529.00;;;;5014304;28;20112;-68
2021/12/18 02:27:14;;;;;;;4.05;2.70;;;17.50;52.70;16.60;103533.00;;;;5021819;28;20072;-68
2021/12/18 02:30:04;;;;;;;3.90;2.22;;;17.50;52.70;16.60;103531.00;;;;5013133;28;20034;-68
2021/12/18 02:32:50;;;;;;;4.53;2.60;;;17.50;52.70;16.60;103528.00;;;;5006855;28;20118;-68
2021/12/18 02:35:51;;;;;;;4.88;2.70;;;17.50;52.70;16.60;103519.00;;;;5030412;28;20057;-68
2021/12/18 02:41:41;;;;;;;4.78;3.00;;;17.50;52.70;16.60;103524.00;;;;5032314;28;20042;-68
2021/12/18 02:44:27;;;;;;;4.72;2.78;;;17.50;52.70;16.60;103531.00;;;;5015526;28;20037;-68
2021/12/18 02:47:13;;;;;;;3.80;2.78;;;17.50;52.70;16.60;103524.00;;;;5018177;28;20044;-68
2021/12/18 02:49:59;;;;;;;4.88;3.00;;;17.50;52.70;16.60;103514.00;;;;5017261;28;20502;-68
2021/12/18 02:52:45;;;;;;;6.43;3.67;;;17.50;52.70;16.60;103517.00;;;;5020191;28;20038;-68
2021/12/18 02:55:32;;;;;;;5.43;3.40;;;17.50;52.70;16.60;103509.00;;;;5022162;28;20507;-68
2021/12/18 02:58:18;;;;;;;6.75;3.33;;;17.50;52.70;16.60;103506.00;;;;5007469;28;20041;-68
2021/12/18 03:01:04;;;;;;;4.68;3.00;;;17.50;52.70;16.60;103503.00;;;;5022142;28;20038;-68
2021/12/18 03:03:53;;;;;;;4.85;3.30;;;17.50;52.70;16.60;103505.00;;;;5024717;28;20103;-68
2021/12/18 03:06:43;;;;;;;6.47;3.35;;;17.50;52.70;16.60;103501.00;;;;5026320;28;20061;-68
2021/12/18 03:25:08;;;;;;;6.50;4.10;;;17.40;52.70;16.50;103494.00;;;;5022795;28;20037;-68
2021/12/18 03:27:55;;;;;;;6.65;3.72;;;17.40;52.70;16.50;103488.00;;;;5007309;28;20125;-68
2021/12/18 03:30:41;;;;;;;5.90;3.67;;;17.40;52.70;16.50;103483.00;;;;5008463;28;20033;-68
2021/12/18 03:33:27;;;;;;;6.60;3.65;;;17.40;52.70;16.50;103491.00;;;;5016591;28;20046;-69
2021/12/18 03:36:13;;;;;;;7.85;4.05;;;17.40;52.70;16.50;103493.00;;;;5007612;28;20070;-68
2021/12/18 03:39:00;;;;;;;6.05;3.40;;;17.40;52.70;16.50;103485.00;;;;5020230;28;20466;-68
2021/12/18 03:41:46;;;;;;;6.22;3.80;;;17.40;52.70;16.50;103483.00;;;;5014131;28;20076;-68
2021/12/18 03:44:33;;;;;;;5.90;3.67;;;17.40;52.70;16.50;103476.00;;;;5015401;28;20060;-68
2021/12/18 03:47:19;;;;;;;6.70;3.90;;;17.40;52.70;16.50;103469.00;;;;5002994;28;20061;-68
2021/12/18 03:50:06;;;;;;;6.35;3.53;;;17.40;52.70;16.50;103479.00;;;;5018444;28;20037;-68
2021/12/18 03:52:52;;;;;;;5.88;3.78;;;17.30;52.70;16.50;103488.00;;;;5014209;28;20045;-68
2021/12/18 03:55:38;;;;;;;7.75;3.92;;;17.30;52.60;16.50;103477.00;;;;5013219;28;20046;-68
2021/12/18 03:58:24;;;;;;;6.80;3.97;;;17.40;52.80;16.50;103471.00;;;;5018965;28;20038;-68
2021/12/18 04:01:10;;;;;;;6.82;4.28;;;17.40;52.70;16.50;103463.00;;;;5016113;28;20059;-68
2021/12/18 04:03:57;;;;;;;7.30;4.10;;;17.40;52.70;16.50;103465.00;;;;5022308;28;20033;-68
2021/12/18 04:06:43;;;;;;;7.25;4.15;;;17.40;52.80;16.50;103469.00;;;;5023177;28;20120;-68
2021/12/18 04:09:31;;;;;;;7.45;4.00;;;17.40;52.80;16.50;103466.00;;;;5014086;28;20045;-68
2021/12/18 04:12:17;;;;;;;6.90;4.15;;;17.40;52.80;16.50;103475.00;;;;5008539;28;20053;-68
2021/12/18 04:15:04;;;;;;;8.73;4.72;;;17.40;52.80;16.50;103482.00;;;;5011849;28;20030;-68
2021/12/18 04:17:50;;;;;;;6.40;3.83;;;17.40;52.80;16.50;103486.00;;;;5020316;28;20080;-68
2021/12/18 04:20:36;;;;;;;6.15;3.80;;;17.40;52.80;16.50;103476.00;;;;5012387;28;20132;-68
2021/12/18 04:23:23;;;;;;;5.95;3.28;;;17.40;52.80;16.50;103491.00;;;;5023852;28;20060;-68
2021/12/18 04:26:09;;;;;;;6.55;4.00;;;17.40;52.80;16.50;103486.00;;;;5016467;28;20044;-68
2021/12/18 04:28:55;;;;;;;5.43;3.45;;;17.40;52.80;16.50;103486.00;;;;5025829;28;20454;-68
2021/12/18 04:31:41;;;;;;;6.70;3.95;;;17.40;52.80;16.50;103493.00;;;;5018529;28;20423;-68
2021/12/18 04:34:27;;;;;;;7.13;3.72;;;17.40;52.80;16.50;103493.00;;;;5012510;28;20042;-68
2021/12/18 04:37:13;;;;;;;6.43;3.90;;;17.40;52.80;16.50;103487.00;;;;5013160;28;20174;-68
2021/12/18 04:40:25;;;;;;;6.50;3.53;;;17.40;52.80;16.50;103499.00;;;;5028152;28;20041;-68
2021/12/18 04:43:11;;;;;;;6.60;3.80;;;17.40;52.80;16.50;103490.00;;;;5014852;28;20053;-68
2021/12/18 04:45:58;;;;;;;7.78;4.32;;;17.40;52.70;16.50;103493.00;;;;5014650;28;20038;-68
2021/12/18 04:48:44;;;;;;;6.70;4.18;;;17.40;52.70;16.50;103497.00;;;;5042122;28;20044;-68
2021/12/18 04:51:30;;;;;;;5.95;3.50;;;17.40;52.70;16.50;103497.00;;;;5011390;28;20399;-68
2021/12/18 04:54:16;;;;;;;6.85;4.40;;;17.40;52.70;16.50;103492.00;;;;5016963;28;20124;-68
2021/12/18 04:57:03;;;;;;;7.30;4.20;;;17.40;52.70;16.50;103487.00;;;;5016039;28;20037;-68
2021/12/18 04:59:49;;;;;;;6.80;4.07;;;17.40;52.80;16.50;103493.00;;;;5016815;28;20034;-68
2021/12/18 05:02:39;;;;;;;7.03;4.20;;;17.40;52.70;16.50;103483.00;;;;5013072;28;20112;-68
2021/12/18 05:05:25;;;;;;;6.03;4.00;;;17.40;52.70;16.50;103483.00;;;;5015169;28;20048;-68
2021/12/18 05:08:11;;;;;;;5.57;3.58;;;17.40;52.70;16.50;103490.00;;;;5020720;28;20049;-68
2021/12/18 05:10:58;;;;;;;6.13;3.85;;;17.40;52.70;16.50;103492.00;;;;5012457;28;20033;-68
2021/12/18 05:13:44;;;;;;;5.45;3.65;;;17.40;52.70;16.50;103500.00;;;;5016404;28;20033;-68
2021/12/18 05:16:30;;;;;;;5.30;3.67;;;17.40;52.70;16.50;103503.00;;;;5013955;28;20046;-68
2021/12/18 05:19:16;;;;;;;6.07;3.60;;;17.40;52.70;16.50;103503.00;;;;5013776;28;20052;-68
2021/12/18 05:22:03;;;;;;;6.47;4.03;;;17.40;52.70;16.50;103509.00;;;;5015465;28;20042;-68
2021/12/18 05:24:50;;;;;;;6.57;3.83;;;17.40;52.70;16.50;103512.00;;;;5017637;28;20062;-68
2021/12/18 05:27:36;;;;;;;5.47;3.28;;;17.40;52.70;16.50;103510.00;;;;5019794;28;20045;-68
2021/12/18 05:30:22;;;;;;;5.05;3.55;;;17.40;52.70;16.50;103510.00;;;;5020198;28;20046;-68
2021/12/18 05:33:10;;;;;;;5.00;3.53;;;17.40;52.70;16.50;103506.00;;;;5014032;28;20053;-68
2021/12/18 05:35:56;;;;;;;5.57;3.35;;;17.40;52.70;16.50;103507.00;;;;5014524;28;20053;-68
2021/12/18 05:38:42;;;;;;;4.63;3.15;;;17.40;52.70;16.50;103504.00;;;;5007565;28;20045;-68
2021/12/18 05:41:28;;;;;;;4.38;3.00;;;17.40;52.60;16.50;103509.00;;;;5017909;28;20042;-68
2021/12/18 05:44:15;;;;;;;5.50;3.40;;;17.40;52.70;16.50;103505.00;;;;5013198;28;20160;-68
2021/12/18 05:47:01;;;;;;;3.80;2.78;;;17.40;52.70;16.50;103516.00;;;;5015656;28;20037;-68
2021/12/18 05:49:47;;;;;;;3.95;2.72;;;17.40;52.60;16.50;103522.00;;;;5018487;28;20041;-68
2021/12/18 05:52:34;;;;;;;4.63;3.28;;;17.40;52.60;16.50;103519.00;;;;5017734;28;20048;-68
2021/12/18 05:55:23;;;;;;;4.95;3.00;;;17.40;52.60;16.50;103520.00;;;;5017506;28;20060;-68
2021/12/18 05:58:09;;;;;;;4.32;3.25;;;17.40;52.60;16.50;103511.00;;;;5021839;28;20099;-68
2021/12/18 06:00:55;;;;;;;5.35;3.25;;;17.40;52.60;16.50;103509.00;;;;5020412;28;20415;-68
2021/12/18 06:03:42;;;;;;;5.20;3.45;;;17.40;52.60;16.50;103509.00;;;;5012766;28;20053;-68
2021/12/18 06:06:30;;;;;;;5.65;3.75;;;17.40;52.50;16.40;103503.00;;;;5013736;28;20528;-68
2021/12/18 06:09:16;;;;;;;;;;;17.30;52.50;16.40;103506.00;;;;5017346;28;20522;-68
2021/12/18 06:12:03;;;;;;;4.22;2.92;;;17.30;52.60;16.40;103510.00;;;;5017720;28;20358;-68
2021/12/18 06:14:49;;;;;;;4.55;3.15;;;17.40;52.40;16.40;103516.00;;;;5022311;28;20046;-68
2021/12/18 06:17:35;;;;;;;4.65;3.22;;;17.40;52.50;16.40;103512.00;;;;5024996;28;20049;-68
2021/12/18 06:20:22;;;;;;;4.15;3.17;;;17.30;52.40;16.40;103514.00;;;;5023304;28;20425;-68
2021/12/18 06:23:08;;;;;;;5.75;3.80;;;17.30;52.40;16.40;103512.00;;;;5009894;28;20037;-68
2021/12/18 06:25:55;;;;;;;5.13;3.70;;;17.30;52.40;16.40;103514.00;;;;5022826;28;20173;-68
2021/12/18 06:28:41;;;;;;;7.82;3.75;;;17.30;52.40;16.40;103519.00;;;;5023417;28;20046;-68
2021/12/18 06:31:28;;;;;;;5.07;3.42;;;17.30;52.40;16.40;103526.00;;;;5023310;28;20037;-68
2021/12/18 06:34:15;;;;;;;5.13;3.50;;;17.30;52.50;16.40;103519.00;;;;5020111;28;20053;-68
2021/12/18 06:37:01;;;;;;;6.10;3.83;;;17.30;52.40;16.40;103519.00;;;;5003525;28;20068;-68
2021/12/18 06:39:47;;;;;;;6.60;4.30;;;17.30;52.40;16.40;103518.00;;;;5016292;28;20292;-68
2021/12/18 06:42:33;;;;;;;5.50;3.80;;;17.30;52.40;16.40;103521.00;;;;5017525;28;20034;-68
2021/12/18 06:45:19;;;;;;;7.05;3.75;;;17.30;52.40;16.40;103528.00;;;;5016105;28;20390;-68
2021/12/18 06:48:05;;;;;;;6.25;3.80;;;17.30;52.40;16.40;103527.00;;;;5022191;28;20034;-68
2021/12/18 06:50:52;;;;;;;6.80;3.97;;;17.30;52.40;16.40;103519.00;;;;5023581;28;20045;-68
2021/12/18 06:53:38;;;;;;;7.30;3.80;;;17.30;52.40;16.40;103520.00;;;;5019033;28;20472;-68
2021/12/18 06:56:24;;;;;;;5.78;3.45;;;17.30;52.40;16.40;103515.00;;;;5022350;28;20087;-68
2021/12/18 06:59:10;;;;;;;5.88;3.97;;;17.30;52.40;16.40;103514.00;;;;5015595;28;20061;-68
2021/12/18 07:01:57;;;;;;;6.10;4.13;;;17.30;52.40;16.40;103523.00;;;;5014114;28;20085;-68
2021/12/18 07:04:43;;;;;;;6.47;3.95;;;17.30;52.40;16.40;103517.00;;;;5020263;28;20034;-68
2021/12/18 07:07:29;;;;;;;5.88;4.13;;;17.30;52.40;16.40;103525.00;;;;5020210;28;20041;-68
2021/12/18 07:10:15;;;;;;;6.53;3.80;;;17.30;52.30;16.40;103521.00;;;;5030273;28;20471;-68
2021/12/18 07:13:01;;;;;;;6.03;3.50;;;17.30;52.30;16.40;103511.00;;;;5025705;28;20146;-68
2021/12/18 07:15:48;;;;;;;5.25;3.60;;;17.30;52.30;16.40;103524.00;;;;5012918;28;20404;-68
2021/12/18 07:18:34;;;;;;;4.85;3.33;;;17.30;52.30;16.40;103517.00;;;;5016745;28;20041;-68
2021/12/18 07:21:20;;;;;;;5.25;3.55;;;17.30;52.30;16.40;103520.00;;;;5013953;28;20071;-68
2021/12/18 07:24:06;;;;;;;6.45;3.65;;;17.30;52.30;16.40;103515.00;;;;5023532;28;20025;-68
2021/12/18 07:26:52;;;;;;;5.13;3.30;;;17.30;52.30;16.40;103516.00;;;;5009424;28;20025;-68
2021/12/18 07:29:39;;;;;;;5.20;3.42;;;17.30;52.30;16.40;103512.00;;;;5016370;28;20133;-68
2021/12/18 07:32:26;;;;;;;6.30;3.53;;;17.30;52.30;16.30;103512.00;;;;5011253;28;20045;-68
2021/12/18 07:35:13;;;;;;;7.07;3.60;;;17.30;52.40;16.30;103513.00;;;;5021648;28;20052;-68
2021/12/18 07:37:59;;;;;;;10.85;3.90;;;17.30;52.30;16.30;103508.00;;;;5005158;28;20105;-68
2021/12/18 07:40:45;;;;;;;9.45;3.55;;;17.20;51.80;16.20;103509.00;;;;5012182;28;20046;-68
2021/12/18 07:43:31;;;;;;;9.80;3.55;;;17.20;51.80;16.20;103511.00;;;;5010367;28;20079;-68
2021/12/18 07:46:18;;;;;;;8.30;2.78;;;17.20;51.60;16.20;103517.00;;;;5012883;28;20038;-68
2021/12/18 07:49:05;;;;;;;6.97;3.00;;;17.20;51.70;16.20;103517.00;;;;5013958;28;20552;-68
2021/12/18 07:51:54;;;;;;;6.25;2.92;;;17.20;51.60;16.20;103520.00;;;;5021932;28;20081;-68
2021/12/18 07:54:41;;;;;;;6.20;2.63;;;17.10;51.70;16.20;103514.00;;;;5023586;28;20386;-68
2021/12/18 07:57:27;;;;;;;4.65;2.65;;;17.10;51.70;16.20;103512.00;;;;5015982;28;20046;-68
2021/12/18 08:00:14;;;;;;;8.38;3.92;;;17.10;51.80;16.20;103508.00;;;;5018749;28;20042;-68
2021/12/18 08:03:04;;;;;;;5.63;2.47;;;17.10;51.90;16.20;103513.00;;;;5019914;28;20041;-68
2021/12/18 08:05:50;;;;;;;4.88;2.78;;;17.10;51.90;16.20;103509.00;;;;5011459;28;20037;-68
2021/12/18 08:08:37;;;;;;;5.60;2.53;;;17.10;51.90;16.20;103508.00;;;;5019728;28;20521;-68
2021/12/18 08:11:23;;;;;;;4.68;2.40;;;17.10;51.90;16.20;103518.00;;;;5003388;28;20049;-68
2021/12/18 08:14:09;;;;;;;5.82;2.72;;;17.10;52.00;16.20;103511.00;;;;5013124;28;20041;-68
2021/12/18 08:16:55;;;;;;;4.53;2.70;;;17.10;51.90;16.20;103513.00;;;;5020637;28;20049;-68
2021/12/18 08:19:41;;;;;;;4.00;2.58;;;17.10;52.00;16.20;103512.00;;;;5016904;28;20160;-68
2021/12/18 08:22:27;;;;;;;4.00;2.45;;;16.70;51.80;16.20;103515.00;;;;5020484;28;20034;-68
2021/12/18 08:25:13;;;;;;;12.30;2.20;;;17.10;52.00;16.30;103514.00;;;;5016088;28;20049;-68
2021/12/18 08:28:00;;;;;;;3.50;2.25;;;17.10;51.90;16.20;103503.00;;;;5021468;28;20103;-68
2021/12/18 08:30:46;;;;;;;3.47;2.13;;;17.10;51.90;16.20;103509.00;;;;5016933;28;20037;-68
2021/12/18 08:33:43;;;;;;;4.13;2.53;;;17.10;51.90;16.30;103504.00;;;;5018995;28;20120;-68
2021/12/18 08:36:30;;;;;;;3.80;2.30;;;17.10;51.90;16.20;103501.00;;;;4995626;28;21738;-68
2021/12/18 08:39:17;;;;;;;3.47;2.05;;;17.10;51.90;16.30;103504.00;;;;5003555;28;20486;-68
2021/12/18 08:42:05;;;;;;;4.97;2.40;;;17.20;52.00;16.30;103509.00;;;;5021122;28;20034;-68
2021/12/18 08:44:51;;;;;;;5.47;2.30;;;17.20;52.00;16.30;103504.00;;;;5010440;28;20285;-68
2021/12/18 08:47:38;;;;;;;4.97;2.38;;;17.20;52.00;16.30;103509.00;;;;5017232;28;20076;-68
2021/12/18 08:50:25;;;;;;;4.05;2.60;;;17.10;51.90;16.30;103514.00;;;;5017427;28;20045;-68
2021/12/18 08:53:11;;;;;;;4.45;2.40;;;17.20;52.00;16.30;103509.00;;;;5008784;28;20057;-68
2021/12/18 08:55:57;;;;;;;5.95;2.47;;;17.20;52.00;16.30;103509.00;;;;5021100;28;20046;-68
2021/12/18 08:58:43;;;;;;;4.55;2.72;;;17.20;52.00;16.30;103512.00;;;;5012937;28;20033;-68
2021/12/18 09:01:29;;;;;;;4.85;2.70;;;17.20;52.00;16.30;103509.00;;;;5009939;28;20047;-68
2021/12/18 09:04:16;;;;;;;5.30;2.58;;;17.20;51.90;16.30;103510.00;;;;5011923;28;20045;-68
2021/12/18 09:07:02;;;;;;;5.63;2.67;;;17.20;51.90;16.30;103522.00;;;;5016636;28;20044;-68
2021/12/18 09:09:49;;;;;;;3.28;2.28;;;17.20;52.00;16.30;103526.00;;;;4990031;28;20116;-68
2021/12/18 09:12:35;;;;;;;4.90;2.53;;;17.20;52.00;16.30;103517.00;;;;5014373;28;20096;-68
2021/12/18 09:15:21;;;;;;;3.78;2.58;;;17.20;51.90;16.30;103517.00;;;;5000538;28;20514;-68
2021/12/18 09:18:09;;;;;;;5.50;2.38;;;17.10;51.90;16.20;103518.00;;;;5020750;28;20147;-67
2021/12/18 09:33:42;;;;;;;11.30;2.92;;;15.70;53.00;14.20;103515.00;;;;5045440;28;20438;-67
2021/12/18 12:17:17;;;;;;;33.75;9.68;;;11.50;62.80;11.30;103402.00;;;;5045658;28;20415;-67
2021/12/18 12:24:52;;;;;;;29.17;7.05;;;11.60;62.60;12.20;103396.00;;;;5039254;28;20472;-67
2021/12/18 12:27:41;;;;;;;25.75;9.00;;;11.80;65.30;12.80;103389.00;;;;5016186;28;20041;-67
2021/12/18 12:31:13;;;;;;;35.97;7.80;;;12.20;64.40;13.30;103384.00;;;;5015520;28;20046;-68
2021/12/18 12:34:23;;;;;;;38.95;9.45;;;12.70;63.50;13.70;103379.00;;;;5033691;28;20535;-68
2021/12/18 12:37:27;;;;;;;28.50;6.88;;;13.30;62.90;14.00;103380.00;;;;5012477;28;20067;-68
2021/12/18 12:40:40;;;;;;;27.63;6.72;;;13.70;61.00;14.20;103377.00;;;;5020629;28;20043;-68
2021/12/18 12:43:29;;;;;;;24.13;6.70;;;14.10;60.10;14.50;103376.00;;;;5031371;28;20164;-68
2021/12/18 12:46:17;;;;;;;21.27;6.60;;;14.50;59.30;14.70;103374.00;;;;5024044;28;20388;-68
2021/12/18 12:49:12;;;;;;;21.17;6.00;;;14.80;58.70;14.80;103363.00;;;;5022202;28;20074;-68
2021/12/18 12:52:03;;;;;;;19.30;5.28;;;15.00;58.10;15.00;103371.00;;;;5015098;28;20654;-67
2021/12/18 12:54:58;;;;;;;18.52;5.57;;;15.30;57.60;15.10;103355.00;;;;5016461;28;20033;-68
2021/12/18 12:57:55;;;;;;;15.73;4.72;;;15.50;57.10;15.20;103354.00;;;;5001877;28;20044;-69
2021/12/18 13:00:42;;;;;;;19.60;4.93;;;15.70;56.70;15.30;103348.00;;;;5020740;28;20133;-68
2021/12/18 13:03:33;;;;;;;16.00;5.47;;;15.90;56.30;15.40;103340.00;;;;5018675;28;20049;-68
2021/12/18 13:06:22;;;;;;;9.75;3.90;;;16.10;56.00;15.50;103345.00;;;;5013562;28;20041;-69
2021/12/18 13:09:08;;;;;;;7.47;3.42;;;16.20;55.50;15.50;103342.00;;;;5032139;28;20091;-68
2021/12/18 13:12:04;;;;;;;4.78;3.05;;;16.30;55.10;15.50;103343.00;;;;5043627;28;20125;-68
2021/12/18 13:19:17;;;;;;;4.93;2.88;;;16.30;54.40;14.70;103338.00;;;;5078646;27;20810;-68
2021/12/18 13:22:12;;;;;;;5.60;3.25;;;16.00;55.00;14.90;103338.00;;;;5066535;28;20066;-69
2021/12/18 13:25:07;;;;;;;9.52;3.28;;;15.90;55.30;15.00;103338.00;;;;5063676;28;20466;-68
2021/12/18 13:28:04;;;;;;;5.13;3.13;;;15.90;55.20;15.10;103333.00;;;;5058387;28;20532;-68
2021/12/18 13:30:52;;;;;;;4.50;3.03;;;15.90;55.00;15.10;103336.00;;;;5067476;28;20060;-68
2021/12/18 13:33:39;;;;;;;6.38;3.22;;;16.00;54.90;15.10;103327.00;;;;5072656;28;20035;-68
2021/12/18 13:36:40;;;;;;;6.18;3.60;;;16.00;54.70;15.10;103320.00;;;;5071931;28;20470;-68
2021/12/18 13:39:32;;;;;;;7.15;3.95;;;16.00;54.60;15.10;103318.00;;;;5079810;28;20036;-68
2021/12/18 13:42:20;;;;;;;6.45;3.85;;;16.10;54.50;15.10;103316.00;;;;5073205;28;20075;-68
2021/12/18 13:45:07;;;;;;;6.07;4.00;;;16.10;55.10;15.10;103321.00;;;;5073045;28;20214;-67
2021/12/18 13:47:53;;;;;;;5.55;3.97;;;16.10;54.40;15.10;103319.00;;;;5073949;28;20042;-68
2021/12/18 13:50:39;;;;;;;6.90;3.90;;;16.10;54.30;15.10;103320.00;;;;5082898;28;20121;-67
2021/12/18 13:53:25;;;;;;;7.32;3.85;;;16.10;54.30;15.10;103314.00;;;;5076233;28;20044;-68
2021/12/18 13:56:12;;;;;;;8.73;3.75;;;16.10;54.30;15.10;103319.00;;;;5060094;28;20036;-67
2021/12/18 13:58:59;;;;;;;5.07;3.83;;;16.20;54.30;15.10;103322.00;;;;5080322;28;20051;-67
2021/12/18 14:01:45;;;;;;;3.88;3.05;;;16.20;54.30;15.10;103313.00;;;;5073602;28;20051;-67
2021/12/18 14:04:31;;;;;;;6.40;3.20;;;16.20;54.20;15.10;103317.00;;;;5065217;28;20055;-67
2021/12/18 14:07:19;;;;;;;11.23;3.33;;;16.10;54.30;15.20;103305.00;;;;5050917;28;20044;-67
2021/12/18 14:10:08;;;;;;;9.55;4.10;;;16.10;54.40;15.20;103311.00;;;;5061383;28;20076;-67
2021/12/18 14:12:54;;;;;;;9.80;3.78;;;16.20;54.40;15.10;103314.00;;;;5072456;28;20051;-67
2021/12/18 14:15:40;;;;;;;9.63;3.85;;;16.20;54.40;15.20;103313.00;;;;5050044;28;20083;-67
2021/12/18 14:18:39;;;;;;;9.20;3.97;;;16.20;54.30;15.20;103313.00;;;;5066215;28;20106;-67
2021/12/18 14:21:45;;;;;;;5.45;3.97;;;16.20;54.40;15.20;103300.00;;;;5075251;28;20161;-67
2021/12/18 14:24:32;;;;;;;9.43;3.65;;;16.20;54.30;15.20;103300.00;;;;5057062;28;20469;-67
2021/12/18 14:27:18;;;;;;;10.75;4.13;;;16.30;54.30;15.20;103304.00;;;;5059497;28;20040;-67
2021/12/18 14:30:14;;;;;;;8.85;4.10;;;16.30;54.20;15.20;103301.00;;;;5042315;28;20044;-67
2021/12/18 14:33:10;;;;;;;35.63;6.45;;;16.30;54.20;15.20;103297.00;;;;5056363;28;20071;-67
2021/12/18 14:35:57;;;;;;;528.13;77.78;;;16.30;54.10;15.20;103298.00;;;;5047075;28;20409;-67
2021/12/18 14:38:56;;;;;;;95.78;16.25;;;16.30;54.20;15.20;103297.00;;;;5060524;28;20044;-67
2021/12/18 14:42:12;;;;;;;65.85;12.25;;;16.30;54.10;15.20;103291.00;;;;5057683;28;20070;-67
2021/12/18 14:45:21;;;;;;;35.33;7.68;;;16.30;54.00;15.20;103302.00;;;;5056747;28;20045;-67
2021/12/18 14:48:07;;;;;;;24.55;6.70;;;16.30;53.90;15.20;103304.00;;;;5061878;28;20417;-67
2021/12/18 14:58:51;;;;;;;56.45;7.90;;;15.60;54.40;13.90;103300.00;;;;5025096;28;20424;-67
2021/12/18 15:01:37;;;;;;;176.97;21.07;;;15.20;56.50;14.20;103305.00;;;;5013764;28;20049;-67
2021/12/18 15:04:24;;;;;;;166.82;17.67;;;15.00;56.90;14.40;103304.00;;;;5034611;28;20040;-68
2021/12/18 15:07:26;;;;;;;110.50;15.07;;;15.10;57.00;14.60;103306.00;;;;5034591;28;20471;-68
2021/12/18 15:10:12;;;;;;;61.67;9.85;;;15.20;56.60;14.70;103308.00;;;;5010437;28;20044;-68
2021/12/18 15:13:14;;;;;;;82.78;12.00;;;15.40;56.20;14.80;103306.00;;;;5029085;28;20053;-68
2021/12/18 15:16:16;;;;;;;108.30;13.07;;;15.50;56.20;14.90;103307.00;;;;5026635;28;20049;-68
2021/12/18 15:19:30;;;;;;;91.50;14.00;;;15.70;56.10;15.00;103302.00;;;;5041044;28;20132;-68
2021/12/18 15:22:16;;;;;;;58.78;8.90;;;15.80;55.70;15.10;103305.00;;;;5028223;28;20099;-68
2021/12/18 15:25:03;;;;;;;57.80;9.82;;;15.90;55.50;15.20;103302.00;;;;5027005;28;20509;-67
2021/12/18 15:27:49;;;;;;;46.78;8.18;;;16.00;55.30;15.30;103305.00;;;;5028659;28;20041;-68
2021/12/18 15:30:35;;;;;;;31.02;7.25;;;16.10;55.20;15.30;103299.00;;;;5044858;28;20041;-68
2021/12/18 15:33:22;;;;;;;36.70;8.57;;;16.20;55.10;15.40;103303.00;;;;5040074;28;20033;-68
2021/12/18 15:36:08;;;;;;;39.85;6.55;;;16.20;54.30;15.50;103299.00;;;;5030510;28;20045;-68
2021/12/18 15:39:00;;;;;;;35.88;7.07;;;16.30;54.80;15.50;103306.00;;;;5041697;28;20061;-68
2021/12/18 15:41:46;;;;;;;39.22;8.27;;;16.40;54.70;15.60;103301.00;;;;5042850;28;20044;-68
2021/12/18 15:44:53;;;;;;;26.38;6.10;;;16.40;54.60;15.60;103304.00;;;;5043306;28;20127;-68
2021/12/18 15:47:39;;;;;;;30.42;6.72;;;16.50;54.40;15.70;103301.00;;;;5042229;28;20473;-68
2021/12/18 15:50:25;;;;;;;33.92;6.95;;;16.50;54.30;15.70;103295.00;;;;5030302;28;20037;-68
2021/12/18 15:53:11;;;;;;;23.67;5.60;;;16.60;54.20;15.70;103301.00;;;;5042619;28;20473;-68
2021/12/18 15:55:58;;;;;;;28.80;6.07;;;16.70;54.20;15.80;103285.00;;;;5029240;28;20064;-68
2021/12/18 15:58:45;;;;;;;26.55;5.43;;;16.70;54.10;15.80;103297.00;;;;5028973;28;20192;-68
2021/12/18 16:01:32;;;;;;;22.88;4.68;;;16.70;54.00;15.80;103288.00;;;;5042852;28;20045;-68
2021/12/18 16:04:18;;;;;;;22.67;5.95;;;16.80;53.90;15.80;103294.00;;;;5011920;28;20041;-68
2021/12/18 16:07:05;;;;;;;23.25;5.38;;;16.80;53.80;15.80;103295.00;;;;5039292;28;20033;-68
2021/12/18 16:09:53;;;;;;;21.00;4.50;;;16.80;53.80;15.90;103293.00;;;;5030003;28;20056;-68
2021/12/18 16:12:40;;;;;;;15.35;4.20;;;16.80;53.70;15.90;103293.00;;;;5028481;28;20094;-68
2021/12/18 16:15:26;;;;;;;21.13;4.22;;;16.90;53.70;15.90;103299.00;;;;5032878;28;20072;-68
2021/12/18 16:18:12;;;;;;;16.65;4.53;;;16.90;53.70;15.90;103297.00;;;;5009650;28;20069;-68